Time;durP1;ratioP1;P1;durP2;ratioP2;P2;SDS_P1;SDS_P2;PMS_P1;PMS_P2;Temp;Humidity;BMP_temperature;BMP_pressure;BME280_temperature;BME280_humidity;BME280_pressure;Samples;Min_cycle;Max_cycle;Signal;HPM_P1;HPM_P2
2023/11/14 00:01:05;;;;;;;0.47;0.47;;;10.00;99.90;;;;;;5068992;28;20425;-77
2023/11/14 00:03:31;;;;;;;0.50;0.50;;;10.00;99.90;;;;;;5075498;28;20461;-76
2023/11/14 00:05:58;;;;;;;1.90;0.67;;;10.00;99.90;;;;;;5075495;28;20440;-76
2023/11/14 00:08:25;;;;;;;0.40;0.40;;;10.00;99.90;;;;;;5075202;28;20955;-77
2023/11/14 00:10:52;;;;;;;0.40;0.37;;;10.00;99.90;;;;;;5075684;28;20484;-76
2023/11/14 00:13:19;;;;;;;0.50;0.40;;;10.00;99.90;;;;;;5074978;28;20483;-76
2023/11/14 00:15:47;;;;;;;0.30;0.30;;;10.00;99.90;;;;;;5075384;28;20445;-76
2023/11/14 00:18:14;;;;;;;0.40;0.37;;;10.00;99.90;;;;;;5075329;28;20453;-76
2023/11/14 00:20:41;;;;;;;2.20;0.77;;;10.00;99.90;;;;;;5075297;28;20437;-76
2023/11/14 00:23:08;;;;;;;3.87;0.50;;;10.10;99.90;;;;;;5075151;28;20550;-76
2023/11/14 00:25:34;;;;;;;1.00;0.40;;;10.10;99.90;;;;;;5075147;28;20449;-76
2023/11/14 00:28:01;;;;;;;0.83;0.60;;;10.10;99.90;;;;;;5075096;28;20441;-76
2023/11/14 00:30:28;;;;;;;0.40;0.33;;;10.00;99.90;;;;;;5074988;28;20443;-76
2023/11/14 00:32:56;;;;;;;2.90;0.67;;;10.10;99.90;;;;;;5074647;28;20464;-76
2023/11/14 00:35:23;;;;;;;2.93;0.50;;;9.90;99.90;;;;;;5074699;28;21014;-76
2023/11/14 00:37:50;;;;;;;0.40;0.40;;;9.90;99.90;;;;;;5074938;28;20486;-76
2023/11/14 00:40:16;;;;;;;1.03;0.50;;;9.90;99.90;;;;;;5074879;28;20440;-76
2023/11/14 00:42:43;;;;;;;2.43;0.40;;;9.90;99.90;;;;;;5074779;28;20465;-76
2023/11/14 00:45:11;;;;;;;0.40;0.33;;;10.00;99.90;;;;;;5074796;28;20805;-76
2023/11/14 00:47:38;;;;;;;0.67;0.67;;;10.00;99.90;;;;;;5062987;28;20462;-76
2023/11/14 00:50:07;;;;;;;1.50;0.33;;;10.00;99.90;;;;;;5068201;28;20449;-76
2023/11/14 00:52:34;;;;;;;0.70;0.50;;;10.00;99.90;;;;;;5074493;28;20492;-76
2023/11/14 00:55:01;;;;;;;0.40;0.40;;;10.00;99.90;;;;;;5072589;28;20444;-76
2023/11/14 00:57:28;;;;;;;4.47;0.40;;;10.00;99.90;;;;;;5071205;28;20494;-76
2023/11/14 00:59:54;;;;;;;2.77;1.23;;;10.00;99.90;;;;;;5074288;28;20445;-76
2023/11/14 01:02:21;;;;;;;0.40;0.40;;;10.00;99.90;;;;;;5055562;28;20462;-76
2023/11/14 01:04:48;;;;;;;0.83;0.50;;;10.00;99.90;;;;;;5054396;28;20476;-76
2023/11/14 01:07:17;;;;;;;0.70;0.50;;;10.00;99.90;;;;;;5054484;28;20507;-76
2023/11/14 01:09:44;;;;;;;2.37;0.90;;;10.00;99.90;;;;;;5054353;28;20454;-76
2023/11/14 01:12:10;;;;;;;3.77;0.60;;;10.00;99.90;;;;;;5053952;28;20477;-76
2023/11/14 01:14:37;;;;;;;0.50;0.50;;;10.00;99.90;;;;;;5054298;28;20418;-76
2023/11/14 01:17:04;;;;;;;0.77;0.30;;;10.00;99.90;;;;;;5053912;28;20426;-76
2023/11/14 01:19:31;;;;;;;0.80;0.50;;;10.00;99.90;;;;;;5053707;28;20549;-76
2023/11/14 01:21:58;;;;;;;3.80;0.43;;;10.00;99.90;;;;;;5054054;28;20925;-76
2023/11/14 01:24:26;;;;;;;6.57;0.60;;;10.10;99.90;;;;;;5054066;28;20446;-76
2023/11/14 01:26:53;;;;;;;0.50;0.50;;;10.00;99.90;;;;;;5053734;28;20972;-76
2023/11/14 01:29:21;;;;;;;0.40;0.40;;;10.00;99.90;;;;;;5053983;28;20481;-76
2023/11/14 01:31:48;;;;;;;1.33;0.60;;;10.00;99.90;;;;;;5053884;28;20505;-76
2023/11/14 01:34:14;;;;;;;1.27;0.50;;;10.00;99.90;;;;;;5053760;28;20825;-76
2023/11/14 01:36:41;;;;;;;3.10;0.60;;;10.00;99.90;;;;;;5053821;28;20445;-76
2023/11/14 01:39:08;;;;;;;0.40;0.40;;;10.00;99.90;;;;;;5053783;28;20456;-76
2023/11/14 01:41:36;;;;;;;6.80;0.50;;;10.00;99.90;;;;;;5053681;28;20528;-76
2023/11/14 01:44:03;;;;;;;0.40;0.40;;;10.00;99.90;;;;;;5053594;28;20461;-76
2023/11/14 01:46:31;;;;;;;0.30;0.30;;;10.00;99.90;;;;;;5053658;28;20507;-76
2023/11/14 01:48:58;;;;;;;3.70;0.30;;;9.90;99.90;;;;;;5053625;28;20813;-76
2023/11/14 01:51:26;;;;;;;5.53;0.43;;;9.90;99.90;;;;;;5053564;28;20489;-76
2023/11/14 01:53:55;;;;;;;0.57;0.40;;;9.80;99.90;;;;;;5053504;28;20519;-76
2023/11/14 01:56:22;;;;;;;2.00;0.60;;;9.80;99.90;;;;;;5053470;28;20866;-76
2023/11/14 01:58:51;;;;;;;0.40;0.40;;;9.70;99.90;;;;;;5053165;28;20937;-76
2023/11/14 02:01:18;;;;;;;0.40;0.40;;;9.70;99.90;;;;;;5053053;28;20499;-76
2023/11/14 02:03:45;;;;;;;0.50;0.50;;;9.60;99.90;;;;;;5053234;28;20507;-76
2023/11/14 02:06:12;;;;;;;1.23;0.40;;;9.60;99.90;;;;;;5053084;28;20449;-76
2023/11/14 02:08:39;;;;;;;1.50;0.43;;;9.60;99.90;;;;;;5053390;28;20579;-76
2023/11/14 02:11:06;;;;;;;0.83;0.60;;;9.60;99.90;;;;;;5052849;28;21047;-76
2023/11/14 02:13:34;;;;;;;1.80;0.40;;;9.60;99.90;;;;;;5054022;28;20489;-77
2023/11/14 02:16:02;;;;;;;0.37;0.37;;;9.60;99.90;;;;;;5071263;28;20536;-77
2023/11/14 02:18:29;;;;;;;1.73;0.73;;;9.60;99.90;;;;;;5073745;28;20459;-77
2023/11/14 02:20:56;;;;;;;0.50;0.50;;;9.50;99.90;;;;;;5069359;28;20446;-77
2023/11/14 02:23:26;;;;;;;0.50;0.50;;;9.50;99.90;;;;;;5066336;28;20484;-77
2023/11/14 02:25:54;;;;;;;0.60;0.50;;;9.60;99.90;;;;;;5065615;28;20444;-77
2023/11/14 02:28:21;;;;;;;0.33;0.33;;;9.60;99.90;;;;;;5053123;28;20449;-77
2023/11/14 02:30:48;;;;;;;0.60;0.60;;;9.60;99.90;;;;;;5054528;28;20456;-77
2023/11/14 02:33:15;;;;;;;0.60;0.33;;;9.60;99.90;;;;;;5057391;28;20492;-77
2023/11/14 02:35:42;;;;;;;0.60;0.40;;;9.60;99.90;;;;;;5057254;28;20453;-77
2023/11/14 02:38:08;;;;;;;0.40;0.40;;;9.60;99.90;;;;;;5057287;28;20448;-77
2023/11/14 02:40:35;;;;;;;0.40;0.40;;;9.60;99.90;;;;;;5057288;28;20454;-76
2023/11/14 02:43:03;;;;;;;1.03;0.67;;;9.60;99.90;;;;;;5056870;28;20461;-77
2023/11/14 02:45:30;;;;;;;0.40;0.40;;;9.50;99.90;;;;;;5057181;28;20441;-77
2023/11/14 02:47:57;;;;;;;0.40;0.40;;;9.50;99.90;;;;;;5057090;28;20779;-77
2023/11/14 02:50:48;;;;;;;3.40;0.30;;;9.50;99.90;;;;;;5056693;28;20441;-77
2023/11/14 02:53:15;;;;;;;1.00;0.60;;;9.40;99.90;;;;;;5056971;28;20543;-77
2023/11/14 02:55:43;;;;;;;0.50;0.43;;;9.50;99.90;;;;;;5062403;28;20453;-77
2023/11/14 02:58:11;;;;;;;2.63;0.40;;;9.40;99.90;;;;;;5064353;28;20449;-77
2023/11/14 03:00:38;;;;;;;4.33;0.67;;;9.40;99.90;;;;;;5075428;28;20449;-77
2023/11/14 03:03:05;;;;;;;1.60;0.83;;;9.40;99.90;;;;;;5080305;28;20518;-77
2023/11/14 03:05:32;;;;;;;0.60;0.60;;;9.40;99.90;;;;;;5074134;28;20443;-77
2023/11/14 03:07:58;;;;;;;0.90;0.60;;;9.40;99.90;;;;;;5080040;28;20441;-77
2023/11/14 03:10:25;;;;;;;1.07;0.67;;;9.40;99.90;;;;;;5079535;28;20955;-77
2023/11/14 03:12:53;;;;;;;8.63;0.90;;;9.40;99.90;;;;;;5065628;28;20496;-77
2023/11/14 03:15:22;;;;;;;1.00;0.43;;;9.40;99.90;;;;;;5056505;28;20453;-77
2023/11/14 03:17:48;;;;;;;0.33;0.30;;;9.30;99.90;;;;;;5056350;28;20933;-78
2023/11/14 03:20:15;;;;;;;3.43;0.50;;;9.40;99.90;;;;;;5056514;28;20450;-77
2023/11/14 03:22:42;;;;;;;0.57;0.50;;;9.40;99.90;;;;;;5056200;28;20468;-77
2023/11/14 03:25:09;;;;;;;4.00;0.50;;;9.30;99.90;;;;;;5056520;28;20887;-77
2023/11/14 03:27:36;;;;;;;0.63;0.50;;;9.30;99.90;;;;;;5056202;28;20449;-77
2023/11/14 03:30:03;;;;;;;0.40;0.40;;;9.30;99.90;;;;;;5056483;28;20452;-77
2023/11/14 03:32:31;;;;;;;0.50;0.50;;;9.30;99.90;;;;;;5056282;28;20500;-77
2023/11/14 03:34:58;;;;;;;1.10;0.60;;;9.30;99.90;;;;;;5056233;28;20453;-77
2023/11/14 03:37:25;;;;;;;0.50;0.50;;;9.30;99.90;;;;;;5056022;28;20445;-77
2023/11/14 03:39:52;;;;;;;0.40;0.40;;;9.30;99.90;;;;;;5055875;28;20456;-77
2023/11/14 03:42:19;;;;;;;0.40;0.30;;;9.20;99.90;;;;;;5055628;28;20457;-77
2023/11/14 03:44:45;;;;;;;7.03;0.47;;;9.20;99.90;;;;;;5056431;28;20500;-77
2023/11/14 03:47:12;;;;;;;3.40;0.60;;;9.20;99.90;;;;;;5056085;28;20450;-77
2023/11/14 03:49:40;;;;;;;0.30;0.30;;;9.30;99.90;;;;;;5056151;28;20449;-77
2023/11/14 03:52:07;;;;;;;3.13;0.43;;;9.20;99.90;;;;;;5056116;28;20488;-77
2023/11/14 03:54:34;;;;;;;1.17;0.33;;;9.30;99.90;;;;;;5055844;28;20445;-77
2023/11/14 03:57:01;;;;;;;0.40;0.40;;;9.20;99.90;;;;;;5055899;28;20450;-77
2023/11/14 03:59:28;;;;;;;0.50;0.50;;;9.20;99.90;;;;;;5056044;28;20446;-77
2023/11/14 04:01:55;;;;;;;0.50;0.50;;;9.20;99.90;;;;;;5056635;28;20449;-79
2023/11/14 04:04:22;;;;;;;0.70;0.50;;;9.30;99.90;;;;;;5056941;28;20447;-79
2023/11/14 04:06:50;;;;;;;0.60;0.60;;;9.30;99.90;;;;;;5056918;28;20438;-79
2023/11/14 04:09:17;;;;;;;0.97;0.50;;;9.30;99.90;;;;;;5055865;28;20452;-77
2023/11/14 04:11:47;;;;;;;1.10;0.67;;;9.30;99.90;;;;;;5055804;28;20562;-77
2023/11/14 04:14:14;;;;;;;0.53;0.53;;;9.30;99.90;;;;;;5055669;28;20485;-77
2023/11/14 04:16:41;;;;;;;4.97;0.40;;;9.30;99.90;;;;;;5055539;28;20540;-77
2023/11/14 04:19:09;;;;;;;0.97;0.50;;;9.30;99.90;;;;;;5055224;28;20454;-77
2023/11/14 04:21:36;;;;;;;2.13;0.50;;;9.30;99.90;;;;;;5055428;28;20445;-77
2023/11/14 04:24:04;;;;;;;0.30;0.30;;;9.20;99.90;;;;;;5055592;28;20886;-77
2023/11/14 04:26:33;;;;;;;0.40;0.40;;;9.30;99.90;;;;;;5055467;28;20445;-77
2023/11/14 04:29:00;;;;;;;1.20;0.50;;;9.30;99.90;;;;;;5055107;28;20465;-77
2023/11/14 04:31:27;;;;;;;1.20;0.70;;;9.30;99.90;;;;;;5055614;28;20449;-77
2023/11/14 04:33:53;;;;;;;0.50;0.40;;;9.20;99.90;;;;;;5056189;28;20865;-78
2023/11/14 04:36:20;;;;;;;1.70;0.47;;;9.20;99.90;;;;;;5055439;28;20452;-77
2023/11/14 04:38:47;;;;;;;1.13;0.60;;;9.20;99.90;;;;;;5055254;28;20441;-77
2023/11/14 04:41:18;;;;;;;0.70;0.70;;;9.20;99.90;;;;;;5055409;28;20453;-77
2023/11/14 04:43:45;;;;;;;0.60;0.60;;;9.30;99.90;;;;;;5055064;28;20457;-77
2023/11/14 04:46:12;;;;;;;0.47;0.40;;;9.30;99.90;;;;;;5054948;28;20492;-77
2023/11/14 04:48:39;;;;;;;0.70;0.40;;;9.20;99.90;;;;;;5054980;28;20448;-76
2023/11/14 04:51:06;;;;;;;0.40;0.40;;;9.30;99.90;;;;;;5054792;28;20454;-77
2023/11/14 04:53:32;;;;;;;1.87;0.40;;;9.30;99.90;;;;;;5053700;28;20481;-77
2023/11/14 04:55:59;;;;;;;0.43;0.43;;;9.30;99.90;;;;;;5054380;28;20450;-77
2023/11/14 04:58:27;;;;;;;1.43;0.60;;;9.30;99.90;;;;;;5054664;28;20446;-76
2023/11/14 05:00:54;;;;;;;0.40;0.40;;;9.20;99.90;;;;;;5054398;28;20445;-77
2023/11/14 05:03:21;;;;;;;3.03;0.80;;;9.20;99.90;;;;;;5054816;28;20466;-77
2023/11/14 05:05:48;;;;;;;0.60;0.57;;;9.20;99.90;;;;;;5054548;28;20445;-77
2023/11/14 05:08:14;;;;;;;0.40;0.40;;;9.20;99.90;;;;;;5055583;28;20520;-78
2023/11/14 05:10:41;;;;;;;1.00;0.60;;;9.20;99.90;;;;;;5054996;28;20448;-78
2023/11/14 05:13:08;;;;;;;0.30;0.30;;;9.20;99.90;;;;;;5054958;28;20493;-78
2023/11/14 05:15:36;;;;;;;1.33;0.40;;;9.20;99.90;;;;;;5130784;22;20852;-78
2023/11/14 05:18:03;;;;;;;0.50;0.40;;;9.20;99.90;;;;;;5114601;28;20807;-78
2023/11/14 05:20:30;;;;;;;1.00;0.60;;;9.20;99.90;;;;;;5114596;28;20441;-78
2023/11/14 05:22:57;;;;;;;0.40;0.40;;;9.20;99.90;;;;;;5114801;28;20431;-78
2023/11/14 05:25:23;;;;;;;2.40;0.40;;;9.20;99.90;;;;;;5114672;28;20458;-78
2023/11/14 05:27:50;;;;;;;0.47;0.47;;;9.20;99.90;;;;;;5114722;28;20439;-78
2023/11/14 05:30:18;;;;;;;0.40;0.33;;;9.20;99.90;;;;;;5114655;28;20443;-78
2023/11/14 05:32:48;;;;;;;4.43;0.53;;;9.20;99.90;;;;;;5114263;28;21014;-78
2023/11/14 05:35:16;;;;;;;0.70;0.60;;;9.20;99.90;;;;;;5114201;28;20963;-78
2023/11/14 05:37:44;;;;;;;0.40;0.40;;;9.20;99.90;;;;;;5114573;28;20450;-78
2023/11/14 05:40:12;;;;;;;10.43;0.60;;;9.10;99.90;;;;;;5114513;28;20816;-78
2023/11/14 05:42:39;;;;;;;1.37;0.50;;;9.10;99.90;;;;;;5114400;28;20454;-78
2023/11/14 05:45:09;;;;;;;0.47;0.47;;;9.10;99.90;;;;;;5114396;28;20552;-78
2023/11/14 05:47:35;;;;;;;0.40;0.40;;;9.10;99.90;;;;;;5114372;28;20443;-78
2023/11/14 05:50:04;;;;;;;0.57;0.50;;;8.90;99.90;;;;;;5114298;28;20435;-78
2023/11/14 05:52:31;;;;;;;0.63;0.50;;;9.00;99.90;;;;;;5113816;28;20997;-78
2023/11/14 05:54:58;;;;;;;0.60;0.40;;;9.00;99.90;;;;;;5113880;28;20473;-78
2023/11/14 05:57:25;;;;;;;0.33;0.33;;;9.00;99.90;;;;;;5114162;28;20438;-78
2023/11/14 05:59:55;;;;;;;1.23;0.40;;;9.00;99.90;;;;;;5114142;28;20435;-78
2023/11/14 06:02:22;;;;;;;0.63;0.63;;;9.00;99.90;;;;;;5114181;28;20427;-78
2023/11/14 06:04:49;;;;;;;1.27;0.60;;;8.90;99.90;;;;;;5113831;28;20506;-78
2023/11/14 06:07:17;;;;;;;0.40;0.37;;;8.90;99.90;;;;;;5114049;28;20446;-78
2023/11/14 06:09:44;;;;;;;15.33;0.60;;;8.90;99.90;;;;;;5113980;28;20435;-78
2023/11/14 06:12:10;;;;;;;1.10;0.60;;;9.00;99.90;;;;;;5113923;28;20439;-78
2023/11/14 06:14:37;;;;;;;0.97;0.40;;;8.90;99.90;;;;;;5113469;28;20500;-78
2023/11/14 06:17:04;;;;;;;0.30;0.30;;;8.90;99.90;;;;;;5113938;28;20449;-78
2023/11/14 06:19:31;;;;;;;0.37;0.37;;;8.90;99.90;;;;;;5113930;28;20466;-78
2023/11/14 06:21:58;;;;;;;1.23;0.60;;;8.80;99.90;;;;;;5113883;28;20444;-78
2023/11/14 06:24:26;;;;;;;0.30;0.30;;;8.80;99.90;;;;;;5113736;28;20459;-78
2023/11/14 06:26:52;;;;;;;0.47;0.47;;;8.80;99.90;;;;;;5113818;28;20438;-78
2023/11/14 06:29:19;;;;;;;4.50;0.47;;;8.70;99.90;;;;;;5113846;28;20447;-77
2023/11/14 06:31:46;;;;;;;0.30;0.30;;;8.70;99.90;;;;;;5113471;28;20443;-78
2023/11/14 06:34:13;;;;;;;0.40;0.30;;;8.70;99.90;;;;;;5113680;28;20479;-78
2023/11/14 06:36:39;;;;;;;1.47;0.60;;;8.60;99.90;;;;;;5113667;28;20439;-78
2023/11/14 06:39:06;;;;;;;0.43;0.43;;;8.70;99.90;;;;;;5113742;28;20447;-78
2023/11/14 06:41:34;;;;;;;1.90;0.50;;;8.70;99.90;;;;;;5113676;28;20439;-78
2023/11/14 06:44:01;;;;;;;0.50;0.50;;;8.70;99.90;;;;;;5113283;28;20963;-78
2023/11/14 06:46:28;;;;;;;1.00;0.50;;;8.80;99.90;;;;;;5113596;28;20453;-78
2023/11/14 06:48:54;;;;;;;0.50;0.40;;;8.80;99.90;;;;;;5113609;28;20439;-78
2023/11/14 06:51:21;;;;;;;0.70;0.50;;;8.80;99.90;;;;;;5113210;28;20938;-78
2023/11/14 06:53:48;;;;;;;0.60;0.50;;;8.70;99.90;;;;;;5113500;28;20847;-78
2023/11/14 06:56:15;;;;;;;0.33;0.33;;;8.80;99.90;;;;;;5113545;28;20443;-78
2023/11/14 06:58:43;;;;;;;0.43;0.43;;;8.80;99.90;;;;;;5113263;28;20950;-78
2023/11/14 07:01:13;;;;;;;0.40;0.40;;;8.90;99.90;;;;;;5113237;28;20450;-78
2023/11/14 07:03:40;;;;;;;0.80;0.50;;;8.90;99.90;;;;;;5113453;28;20461;-78
2023/11/14 07:06:07;;;;;;;0.80;0.43;;;8.90;99.90;;;;;;5113250;28;20443;-78
2023/11/14 07:08:34;;;;;;;3.50;0.40;;;8.90;99.90;;;;;;5113582;28;20443;-78
2023/11/14 07:11:01;;;;;;;0.50;0.40;;;8.90;99.90;;;;;;5113261;28;20435;-78
2023/11/14 07:13:28;;;;;;;0.33;0.30;;;9.00;99.90;;;;;;5112925;28;20997;-79
2023/11/14 07:15:56;;;;;;;0.83;0.60;;;9.00;99.90;;;;;;5113525;28;20458;-79
2023/11/14 07:18:23;;;;;;;0.40;0.40;;;9.00;99.90;;;;;;5117292;28;20942;-79
2023/11/14 07:20:49;;;;;;;0.97;0.60;;;9.00;99.90;;;;;;5117320;28;20529;-78
2023/11/14 07:23:16;;;;;;;0.37;0.37;;;9.00;99.90;;;;;;5118146;28;20446;-79
2023/11/14 07:25:43;;;;;;;0.40;0.30;;;9.00;99.90;;;;;;5127810;28;20520;-77
2023/11/14 07:28:11;;;;;;;0.30;0.30;;;8.90;99.90;;;;;;5117247;28;20442;-78
2023/11/14 07:30:38;;;;;;;0.40;0.40;;;8.90;99.90;;;;;;5117366;28;20827;-78
2023/11/14 07:33:06;;;;;;;0.30;0.30;;;8.90;99.90;;;;;;5116717;28;21014;-78
2023/11/14 07:35:37;;;;;;;0.60;0.40;;;9.00;99.90;;;;;;5117043;28;20519;-78
2023/11/14 07:38:04;;;;;;;0.73;0.40;;;9.30;99.90;;;;;;5117134;28;20480;-78
2023/11/14 07:40:32;;;;;;;0.80;0.50;;;9.30;99.90;;;;;;5116907;28;20446;-78
2023/11/14 07:43:02;;;;;;;0.40;0.40;;;9.40;99.90;;;;;;5116944;28;20471;-78
2023/11/14 07:45:29;;;;;;;0.83;0.30;;;9.50;99.90;;;;;;5116865;28;20883;-78
2023/11/14 07:47:55;;;;;;;0.57;0.57;;;9.40;99.90;;;;;;5116853;28;20431;-79
2023/11/14 07:50:24;;;;;;;0.40;0.40;;;9.40;99.90;;;;;;5116487;28;20454;-78
2023/11/14 07:52:52;;;;;;;0.70;0.33;;;9.40;99.90;;;;;;5116248;28;20957;-78
2023/11/14 07:55:19;;;;;;;0.30;0.30;;;9.40;99.90;;;;;;5116729;28;20463;-78
2023/11/14 07:57:46;;;;;;;0.40;0.40;;;9.40;99.90;;;;;;5116712;28;20451;-78
2023/11/14 08:00:13;;;;;;;0.30;0.30;;;9.40;99.90;;;;;;5116638;28;20443;-77
2023/11/14 08:02:41;;;;;;;0.40;0.40;;;9.40;99.90;;;;;;5116457;28;20443;-77
2023/11/14 08:05:09;;;;;;;0.30;0.30;;;9.40;99.90;;;;;;5116501;28;20467;-77
2023/11/14 08:07:37;;;;;;;0.50;0.30;;;9.40;99.90;;;;;;5116510;28;20445;-78
2023/11/14 08:10:05;;;;;;;0.50;0.37;;;9.40;99.90;;;;;;5116314;28;20443;-77
2023/11/14 08:12:32;;;;;;;0.40;0.40;;;9.60;99.90;;;;;;5116405;28;20450;-78
2023/11/14 08:14:59;;;;;;;0.40;0.30;;;9.60;99.90;;;;;;5116068;28;20551;-76
2023/11/14 08:17:27;;;;;;;0.33;0.30;;;9.70;99.90;;;;;;5116177;28;20488;-76
2023/11/14 08:19:53;;;;;;;0.50;0.30;;;9.70;99.90;;;;;;5116186;28;20443;-76
2023/11/14 08:22:20;;;;;;;0.30;0.30;;;9.60;99.90;;;;;;5115984;28;20446;-76
2023/11/14 08:24:48;;;;;;;0.30;0.30;;;9.60;99.90;;;;;;5115667;28;20487;-76
2023/11/14 08:27:15;;;;;;;1.00;0.50;;;9.70;99.90;;;;;;5115701;28;20435;-76
2023/11/14 08:29:42;;;;;;;0.60;0.60;;;9.80;99.90;;;;;;5114837;28;20546;-76
2023/11/14 08:32:09;;;;;;;0.40;0.40;;;9.80;99.90;;;;;;5115791;28;20447;-76
2023/11/14 08:34:36;;;;;;;1.33;0.40;;;9.90;99.90;;;;;;5115648;28;20505;-77
2023/11/14 08:37:03;;;;;;;2.80;0.60;;;9.80;99.90;;;;;;5115751;28;20447;-77
2023/11/14 08:39:30;;;;;;;0.60;0.30;;;9.80;99.90;;;;;;5115396;28;20473;-77
2023/11/14 08:41:58;;;;;;;0.30;0.30;;;9.80;99.90;;;;;;5115659;28;20435;-77
2023/11/14 08:44:25;;;;;;;0.60;0.30;;;9.70;99.90;;;;;;5115309;28;20459;-77
2023/11/14 08:46:52;;;;;;;0.60;0.40;;;9.70;99.90;;;;;;5115294;28;21000;-76
2023/11/14 08:49:20;;;;;;;23.53;0.63;;;9.70;99.90;;;;;;5115269;28;20439;-76
2023/11/14 08:51:47;;;;;;;0.37;0.30;;;9.70;99.90;;;;;;5115487;28;20546;-76
2023/11/14 08:54:14;;;;;;;0.87;0.30;;;9.70;99.90;;;;;;5115255;28;20510;-76
2023/11/14 08:56:42;;;;;;;0.80;0.40;;;9.60;99.90;;;;;;5115013;28;20443;-76
2023/11/14 08:59:11;;;;;;;1.03;1.03;;;9.60;99.90;;;;;;5116331;28;20465;-77
2023/11/14 09:01:38;;;;;;;0.30;0.30;;;9.50;99.90;;;;;;5115469;28;20475;-76
2023/11/14 09:04:05;;;;;;;0.40;0.40;;;9.60;99.90;;;;;;5115303;28;20463;-76
2023/11/14 09:06:32;;;;;;;0.40;0.30;;;9.60;99.90;;;;;;5115464;28;20439;-79
2023/11/14 09:08:59;;;;;;;0.40;0.30;;;9.80;99.90;;;;;;5115288;28;20496;-79
2023/11/14 09:11:26;;;;;;;0.40;0.30;;;9.80;99.90;;;;;;5115426;28;20494;-78
2023/11/14 09:13:56;;;;;;;0.70;0.40;;;9.80;99.90;;;;;;5114954;28;20491;-78
2023/11/14 09:16:25;;;;;;;0.30;0.30;;;9.70;99.90;;;;;;5115245;28;20435;-78
2023/11/14 09:18:52;;;;;;;0.70;0.33;;;9.80;99.90;;;;;;5115152;28;20439;-77
2023/11/14 09:21:18;;;;;;;0.30;0.30;;;9.80;99.90;;;;;;5114743;28;20468;-76
2023/11/14 09:23:45;;;;;;;0.60;0.40;;;9.80;99.90;;;;;;5114854;28;20813;-77
2023/11/14 09:26:13;;;;;;;0.43;0.40;;;9.90;99.90;;;;;;5114937;28;20435;-77
2023/11/14 09:28:40;;;;;;;0.40;0.40;;;10.00;99.90;;;;;;5114813;28;20449;-77
2023/11/14 09:31:08;;;;;;;0.53;0.50;;;10.10;99.90;;;;;;5114561;28;20439;-76
2023/11/14 09:33:36;;;;;;;0.50;0.40;;;10.10;99.90;;;;;;5114676;28;20481;-77
2023/11/14 09:36:04;;;;;;;0.40;0.40;;;10.10;99.90;;;;;;5116913;28;20450;-77
2023/11/14 09:38:32;;;;;;;0.30;0.30;;;10.10;99.90;;;;;;5114660;28;20551;-77
2023/11/14 09:41:02;;;;;;;0.60;0.40;;;10.10;99.90;;;;;;5114156;28;20799;-77
2023/11/14 09:43:29;;;;;;;0.70;0.60;;;10.10;99.90;;;;;;5114419;28;20451;-79
2023/11/14 09:45:58;;;;;;;0.70;0.30;;;10.10;99.90;;;;;;5114427;28;20791;-77
2023/11/14 09:48:25;;;;;;;0.30;0.30;;;10.00;99.90;;;;;;5114106;28;20447;-77
2023/11/14 09:50:54;;;;;;;0.30;0.30;;;10.00;99.90;;;;;;5114425;28;20428;-77
2023/11/14 09:53:23;;;;;;;0.60;0.40;;;10.00;99.90;;;;;;5114357;28;20428;-77
2023/11/14 09:55:50;;;;;;;0.40;0.37;;;10.00;99.90;;;;;;5114274;28;20459;-77
2023/11/14 09:58:17;;;;;;;0.33;0.33;;;10.00;99.90;;;;;;5115099;28;20447;-76
2023/11/14 10:00:46;;;;;;;0.40;0.30;;;10.00;99.90;;;;;;5114942;28;20473;-77
2023/11/14 10:03:13;;;;;;;0.40;0.40;;;9.90;99.90;;;;;;5114500;28;20439;-77
2023/11/14 10:05:40;;;;;;;0.30;0.30;;;10.00;99.90;;;;;;5113798;28;20971;-77
2023/11/14 10:08:12;;;;;;;0.40;0.40;;;10.00;99.90;;;;;;5114070;28;20427;-77
2023/11/14 10:10:40;;;;;;;0.40;0.30;;;9.90;99.90;;;;;;5114103;28;20806;-77
2023/11/14 10:13:18;;;;;;;0.40;0.40;;;10.00;99.90;;;;;;5114079;28;20795;-77
2023/11/14 10:15:45;;;;;;;2.90;0.83;;;9.90;99.90;;;;;;5113610;28;20524;-77
2023/11/14 10:18:12;;;;;;;3.03;0.40;;;9.90;99.90;;;;;;5114465;28;20446;-76
2023/11/14 10:20:40;;;;;;;0.40;0.33;;;10.00;99.90;;;;;;5115020;28;20443;-77
2023/11/14 10:23:09;;;;;;;0.37;0.37;;;9.90;99.90;;;;;;5113707;28;20431;-77
2023/11/14 10:25:37;;;;;;;0.30;0.30;;;10.00;99.90;;;;;;5113908;28;20924;-77
2023/11/14 10:28:05;;;;;;;0.30;0.30;;;10.00;99.90;;;;;;5114015;28;20503;-77
2023/11/14 10:30:49;;;;;;;0.83;0.40;;;10.00;99.90;;;;;;5113893;28;20442;-77
2023/11/14 10:33:16;;;;;;;0.77;0.60;;;10.10;99.90;;;;;;5113453;28;20939;-77
2023/11/14 10:35:43;;;;;;;0.43;0.43;;;10.10;99.90;;;;;;5113408;28;20486;-77
2023/11/14 10:38:19;;;;;;;0.40;0.30;;;10.10;99.90;;;;;;5113865;28;20451;-77
2023/11/14 10:40:47;;;;;;;0.40;0.30;;;10.10;99.90;;;;;;5113817;28;20445;-77
2023/11/14 10:43:13;;;;;;;0.30;0.30;;;10.10;99.90;;;;;;5113509;28;20939;-77
2023/11/14 10:45:43;;;;;;;0.50;0.30;;;10.10;99.90;;;;;;5113689;28;20458;-77
2023/11/14 10:48:20;;;;;;;0.40;0.30;;;10.00;99.90;;;;;;5113575;28;20453;-77
2023/11/14 10:50:48;;;;;;;0.33;0.33;;;10.10;99.90;;;;;;5113759;28;20470;-79
2023/11/14 10:53:16;;;;;;;0.50;0.30;;;10.20;99.90;;;;;;5117552;28;20439;-79
2023/11/14 10:55:44;;;;;;;1.23;0.50;;;10.10;99.90;;;;;;5117422;28;20982;-77
2023/11/14 10:58:13;;;;;;;0.30;0.30;;;10.10;99.90;;;;;;5117369;28;20450;-78
2023/11/14 11:00:40;;;;;;;0.30;0.30;;;10.10;99.90;;;;;;5117870;28;20541;-77
2023/11/14 11:03:08;;;;;;;0.30;0.30;;;10.20;99.90;;;;;;5117757;28;20445;-78
2023/11/14 11:05:37;;;;;;;1.37;0.40;;;10.20;99.90;;;;;;5117554;28;20454;-77
2023/11/14 11:08:05;;;;;;;0.50;0.50;;;10.30;99.90;;;;;;5117154;28;20447;-77
2023/11/14 11:10:34;;;;;;;0.30;0.30;;;10.30;99.90;;;;;;5117797;28;20431;-77
2023/11/14 11:13:04;;;;;;;0.30;0.30;;;10.30;99.90;;;;;;5117224;28;20534;-77
2023/11/14 11:15:32;;;;;;;0.40;0.40;;;10.30;99.90;;;;;;5125129;22;20887;-79
2023/11/14 11:18:01;;;;;;;0.40;0.30;;;10.40;99.90;;;;;;5097230;28;20561;-77
2023/11/14 11:20:28;;;;;;;0.83;0.30;;;10.40;99.90;;;;;;5097019;28;20813;-77
2023/11/14 11:23:08;;;;;;;0.40;0.30;;;10.50;99.90;;;;;;5097638;28;20440;-77
2023/11/14 11:25:37;;;;;;;0.30;0.30;;;10.50;99.90;;;;;;5096683;28;20462;-77
2023/11/14 11:28:30;;;;;;;2.67;0.40;;;10.50;99.90;;;;;;5096493;28;20931;-76
2023/11/14 11:31:15;;;;;;;0.30;0.30;;;10.60;99.90;;;;;;5096716;28;20485;-77
2023/11/14 11:33:43;;;;;;;2.50;0.70;;;10.70;99.90;;;;;;5096989;28;20436;-77
2023/11/14 11:36:32;;;;;;;1.10;0.37;;;10.80;99.90;;;;;;5096514;28;20511;-77
2023/11/14 11:38:59;;;;;;;0.30;0.30;;;10.80;99.90;;;;;;5096493;28;20461;-77
2023/11/14 11:41:32;;;;;;;2.07;0.30;;;10.90;99.90;;;;;;5096515;28;20451;-77
2023/11/14 11:44:03;;;;;;;0.97;0.30;;;10.90;99.90;;;;;;5096450;28;20424;-77
2023/11/14 11:46:40;;;;;;;0.77;0.40;;;10.90;99.90;;;;;;5096422;28;20424;-77
2023/11/14 11:49:29;;;;;;;1.67;0.33;;;10.80;99.90;;;;;;5096456;28;20424;-77
2023/11/14 11:52:11;;;;;;;0.40;0.33;;;10.80;99.90;;;;;;5096249;28;20448;-76
2023/11/14 11:54:39;;;;;;;2.10;0.50;;;10.70;99.90;;;;;;5096189;28;20483;-78
2023/11/14 11:57:10;;;;;;;0.30;0.30;;;10.60;99.90;;;;;;5096251;28;20479;-77
2023/11/14 12:00:17;;;;;;;0.40;0.30;;;10.70;99.90;;;;;;5098280;28;20790;-77
2023/11/14 12:02:46;;;;;;;0.30;0.30;;;10.60;99.90;;;;;;5094851;28;20447;-78
2023/11/14 12:05:15;;;;;;;2.30;0.47;;;10.60;99.90;;;;;;5095931;28;20471;-77
2023/11/14 12:07:42;;;;;;;0.30;0.30;;;11.10;99.90;;;;;;5096017;28;20447;-77
2023/11/14 12:10:09;;;;;;;1.80;0.50;;;10.70;99.90;;;;;;5095729;28;20928;-76
2023/11/14 12:12:40;;;;;;;0.30;0.20;;;10.70;99.90;;;;;;5096893;28;20901;-77
2023/11/14 12:15:10;;;;;;;1.33;0.30;;;10.70;99.90;;;;;;5096201;28;20487;-77
2023/11/14 12:17:37;;;;;;;0.30;0.30;;;10.80;99.90;;;;;;5095665;28;20959;-77
2023/11/14 12:20:09;;;;;;;0.30;0.30;;;10.80;99.90;;;;;;5097050;28;20428;-77
2023/11/14 12:22:36;;;;;;;0.30;0.30;;;10.80;99.90;;;;;;5095842;28;20439;-77
2023/11/14 12:25:04;;;;;;;0.77;0.30;;;10.90;99.90;;;;;;5095579;28;20872;-77
2023/11/14 12:27:31;;;;;;;0.40;0.37;;;11.00;99.90;;;;;;5095307;28;20447;-77
2023/11/14 12:30:10;;;;;;;1.03;0.60;;;11.00;99.90;;;;;;5095538;28;20444;-77
2023/11/14 12:32:37;;;;;;;3.50;0.50;;;11.00;99.90;;;;;;5095497;28;20440;-77
2023/11/14 12:35:04;;;;;;;0.40;0.40;;;11.00;99.90;;;;;;5095447;28;20490;-79
2023/11/14 12:37:31;;;;;;;2.73;0.63;;;11.00;99.90;;;;;;5095421;28;20435;-77
2023/11/14 12:40:09;;;;;;;0.63;0.30;;;10.90;99.90;;;;;;5095334;28;20450;-77
2023/11/14 12:42:37;;;;;;;0.40;0.30;;;11.00;99.90;;;;;;5095392;28;20434;-77
2023/11/14 12:45:07;;;;;;;0.80;0.40;;;11.00;99.90;;;;;;5095249;28;20467;-77
2023/11/14 12:47:38;;;;;;;0.43;0.30;;;10.90;99.90;;;;;;5095513;28;20527;-77
2023/11/14 12:50:05;;;;;;;1.23;0.50;;;11.00;99.90;;;;;;5095126;28;20489;-77
2023/11/14 12:52:34;;;;;;;0.70;0.70;;;10.90;99.90;;;;;;5095089;28;20819;-77
2023/11/14 12:55:01;;;;;;;0.40;0.30;;;10.90;99.90;;;;;;5094905;28;20483;-78
2023/11/14 12:57:28;;;;;;;3.23;0.60;;;10.90;99.90;;;;;;5095079;28;20439;-77